createdAt,value
2019-03-01T00:00:59.591Z,97780.64
2019-03-01T00:03:28.629Z,97780.64
2019-03-01T00:06:16.780Z,97769.71
2019-03-01T00:09:04.749Z,97777.73
2019-03-01T00:11:53.826Z,97772.74
2019-03-01T00:14:47.735Z,97758.25
2019-03-01T00:17:31.179Z,97765.48
2019-03-01T00:20:18.026Z,97770.56
2019-03-01T00:23:12.376Z,97770.56
2019-03-01T00:26:01.757Z,97766.83
2019-03-01T00:28:48.286Z,97764.76
2019-03-01T00:31:31.735Z,97756.75
2019-03-01T00:34:12.090Z,97756.75
2019-03-01T00:37:01.780Z,97765.61
2019-03-01T00:39:48.546Z,97760.45
2019-03-01T00:42:28.925Z,97759.23
2019-03-01T00:44:57.286Z,97754.09
2019-03-01T00:47:25.614Z,97754.09
2019-03-01T00:49:54.097Z,97751.81
2019-03-01T00:52:22.536Z,97760.87
2019-03-01T00:54:50.913Z,97738.14
2019-03-01T00:57:19.212Z,97737.09
2019-03-01T00:59:47.542Z,97734.67
2019-03-01T01:02:15.834Z,97734.67
2019-03-01T01:04:44.143Z,97732.33
2019-03-01T01:07:12.438Z,97733.88
2019-03-01T01:09:40.756Z,97731.20
2019-03-01T01:12:09.130Z,97736.30
2019-03-01T01:14:37.444Z,97733.28
2019-03-01T01:17:06.002Z,97723.07
2019-03-01T01:19:34.353Z,97723.07
2019-03-01T01:22:02.682Z,97731.86
2019-03-01T01:24:31.168Z,97725.36
2019-03-01T01:26:59.525Z,97726.64
2019-03-01T01:29:28.002Z,97710.32
2019-03-01T01:31:56.392Z,97697.45
2019-03-01T01:34:24.793Z,97702.97
2019-03-01T01:36:53.178Z,97702.97
2019-03-01T01:39:23.111Z,97699.00
2019-03-01T01:41:51.712Z,97709.66
2019-03-01T01:44:20.205Z,97702.45
2019-03-01T01:46:48.521Z,97702.45
2019-03-01T01:49:16.884Z,97692.11
2019-03-01T01:51:45.242Z,97692.11
2019-03-01T01:54:13.539Z,97689.58
2019-03-01T01:56:42.029Z,97689.58
2019-03-01T01:59:10.311Z,97692.39
2019-03-01T02:01:38.642Z,97681.70
2019-03-01T02:04:07.085Z,97691.11
2019-03-01T02:06:35.399Z,97675.39
2019-03-01T02:09:04.521Z,97666.05
2019-03-01T02:11:35.248Z,97670.86
2019-03-01T02:14:02.834Z,97670.86
2019-03-01T02:16:31.164Z,97658.27
2019-03-01T02:18:59.523Z,97653.23
2019-03-01T02:21:27.925Z,97652.06
2019-03-01T02:23:56.311Z,97652.06
2019-03-01T02:26:24.865Z,97648.89
2019-03-01T02:28:53.207Z,97642.97
2019-03-01T02:31:21.631Z,97642.97
2019-03-01T02:33:49.924Z,97642.80
2019-03-01T02:36:18.486Z,97630.37
2019-03-01T02:38:46.788Z,97630.37
2019-03-01T02:41:15.242Z,97637.27
2019-03-01T02:43:43.578Z,97624.27
2019-03-01T02:46:11.882Z,97624.27
2019-03-01T02:48:40.248Z,97619.80
2019-03-01T02:51:08.531Z,97619.80
2019-03-01T02:53:36.868Z,97625.30
2019-03-01T02:56:05.158Z,97622.80
2019-03-01T02:58:33.527Z,97613.39
2019-03-01T03:01:01.902Z,97613.39
2019-03-01T03:03:30.277Z,97616.41
2019-03-01T03:06:12.195Z,97608.09
2019-03-01T03:08:42.391Z,97608.09
2019-03-01T03:11:10.682Z,97608.91
2019-03-01T03:13:39.335Z,97607.51
2019-03-01T03:16:07.623Z,97609.73
2019-03-01T03:18:36.009Z,97609.73
2019-03-01T03:21:04.404Z,97596.39
2019-03-01T03:23:32.771Z,97600.80
2019-03-01T03:26:01.076Z,97602.69
2019-03-01T03:28:29.805Z,97602.69
2019-03-01T03:30:58.089Z,97603.73
2019-03-01T03:33:26.403Z,97593.31
2019-03-01T03:35:55.077Z,97593.31
2019-03-01T03:38:23.393Z,97595.66
2019-03-01T03:40:51.731Z,97585.74
2019-03-01T03:43:22.765Z,97583.38
2019-03-01T03:45:50.161Z,97583.38
2019-03-01T03:48:18.513Z,97579.18
2019-03-01T03:50:46.855Z,97569.84
2019-03-01T03:53:15.160Z,97569.84
2019-03-01T03:55:43.496Z,97564.84
2019-03-01T03:58:11.850Z,97564.70
2019-03-01T04:00:40.433Z,97561.91
2019-03-01T04:03:08.806Z,97561.91
2019-03-01T04:05:37.206Z,97550.06
2019-03-01T04:08:05.569Z,97550.06
2019-03-01T04:10:33.877Z,97536.33
2019-03-01T04:13:02.250Z,97545.70
2019-03-01T04:15:30.650Z,97528.67
2019-03-01T04:17:59.170Z,97533.34
2019-03-01T04:20:27.537Z,97537.61
2019-03-01T04:22:55.914Z,97537.61
2019-03-01T04:25:24.200Z,97528.89
2019-03-01T04:27:53.434Z,97520.51
2019-03-01T04:30:22.005Z,97515.63
2019-03-01T04:32:50.294Z,97515.63
2019-03-01T04:35:18.696Z,97517.43
2019-03-01T04:37:47.054Z,97518.11
2019-03-01T04:40:15.901Z,97518.11
2019-03-01T04:42:44.269Z,97513.79
2019-03-01T04:45:14.986Z,97505.70
2019-03-01T04:47:43.854Z,97495.05
2019-03-01T04:50:12.848Z,97502.39
2019-03-01T04:52:42.025Z,97502.39
2019-03-01T04:55:13.743Z,97493.79
2019-03-01T04:57:42.210Z,97486.89
2019-03-01T05:00:15.913Z,97490.09
2019-03-01T05:02:44.469Z,97500.72
2019-03-01T05:05:15.334Z,97488.32
2019-03-01T05:07:43.713Z,97488.32
2019-03-01T05:10:13.264Z,97484.03
2019-03-01T05:12:41.694Z,97486.75
2019-03-01T05:15:14.549Z,97481.94
2019-03-01T05:17:43.203Z,97472.55
2019-03-01T05:20:11.660Z,97478.17
2019-03-01T05:22:39.962Z,97478.17
2019-03-01T05:25:09.590Z,97472.50
2019-03-01T05:27:37.876Z,97455.41
2019-03-01T05:30:14.625Z,97455.41
2019-03-01T05:32:42.998Z,97456.11
2019-03-01T05:35:11.792Z,97452.91
2019-03-01T05:37:40.071Z,97451.02
2019-03-01T05:40:17.740Z,97454.97
2019-03-01T05:42:46.204Z,97454.97
2019-03-01T05:45:23.186Z,97452.83
2019-03-01T05:47:51.497Z,97454.45
2019-03-01T05:50:20.069Z,97440.69
2019-03-01T05:52:48.382Z,97446.55
2019-03-01T05:55:16.774Z,97431.04
2019-03-01T05:58:21.500Z,97438.96
2019-03-01T06:00:51.301Z,97441.41
2019-03-01T06:03:31.956Z,97447.01
2019-03-01T06:06:00.239Z,97452.98
2019-03-01T06:08:52.653Z,97447.52
2019-03-01T06:11:27.076Z,97447.52
2019-03-01T06:14:07.269Z,97459.45
2019-03-01T06:16:40.204Z,97459.45
2019-03-01T06:19:24.119Z,97452.91
2019-03-01T06:22:12.196Z,97454.61
2019-03-01T06:25:05.030Z,97457.22
2019-03-01T06:27:48.600Z,97459.43
2019-03-01T06:30:29.023Z,97467.50
2019-03-01T06:33:03.202Z,97458.16
2019-03-01T06:35:46.482Z,97470.10
2019-03-01T06:38:41.950Z,97469.71
2019-03-01T06:41:40.965Z,97469.71
2019-03-01T06:44:12.483Z,97470.04
2019-03-01T06:46:54.459Z,97477.40
2019-03-01T06:49:24.398Z,97470.80
2019-03-01T06:51:52.875Z,97470.80
2019-03-01T06:54:21.169Z,97457.97
2019-03-01T06:56:49.568Z,97457.97
2019-03-01T06:59:18.174Z,97475.23
2019-03-01T07:01:46.484Z,97482.93
2019-03-01T07:04:14.853Z,97483.69
2019-03-01T07:06:43.140Z,97475.80
2019-03-01T07:09:11.516Z,97472.84
2019-03-01T07:11:39.811Z,97482.34
2019-03-01T07:14:08.194Z,97482.34
2019-03-01T07:16:36.630Z,97481.45
2019-03-01T07:19:05.137Z,97481.45
2019-03-01T07:21:33.444Z,97485.47
2019-03-01T07:24:01.861Z,97477.43
2019-03-01T07:26:30.136Z,97479.23
2019-03-01T07:28:59.151Z,97466.26
2019-03-01T07:31:27.435Z,97466.26
2019-03-01T07:33:55.820Z,97473.03
2019-03-01T07:36:24.180Z,97483.67
2019-03-01T07:38:52.576Z,97483.41
2019-03-01T07:41:20.877Z,97489.03
2019-03-01T07:43:49.211Z,97488.23
2019-03-01T07:46:17.664Z,97481.78
2019-03-01T07:48:45.942Z,97487.63
2019-03-01T07:51:14.263Z,97495.33
2019-03-01T07:53:42.577Z,97485.89
2019-03-01T07:56:10.878Z,97485.89
2019-03-01T07:58:39.359Z,97487.53
2019-03-01T08:01:07.767Z,97487.53
2019-03-01T08:03:36.056Z,97484.36
2019-03-01T08:06:04.491Z,97491.58
2019-03-01T08:08:34.929Z,97484.72
2019-03-01T08:11:02.964Z,97474.16
2019-03-01T08:13:31.596Z,97480.83
2019-03-01T08:16:00.102Z,97479.34
2019-03-01T08:18:28.379Z,97479.34
2019-03-01T08:20:56.785Z,97483.13
2019-03-01T08:23:25.166Z,97483.13
2019-03-01T08:25:55.591Z,97475.59
2019-03-01T08:28:23.840Z,97471.30
2019-03-01T08:30:52.151Z,97483.08
2019-03-01T08:33:20.537Z,97483.08
2019-03-01T08:35:48.935Z,97480.04
2019-03-01T08:38:17.256Z,97479.50
2019-03-01T08:40:46.702Z,97474.81
2019-03-01T08:43:15.741Z,97468.19
2019-03-01T08:45:44.256Z,97468.19
2019-03-01T08:48:12.704Z,97472.56
2019-03-01T08:50:41.126Z,97482.18
2019-03-01T08:53:11.524Z,97482.18
2019-03-01T08:55:39.848Z,97477.38
2019-03-01T08:58:08.179Z,97475.89
2019-03-01T09:00:47.932Z,97471.58
2019-03-01T09:03:26.871Z,97475.57
2019-03-01T09:05:55.142Z,97467.02
2019-03-01T09:08:23.750Z,97473.36
2019-03-01T09:10:52.097Z,97476.55
2019-03-01T09:13:20.642Z,97482.50
2019-03-01T09:15:49.405Z,97482.50
2019-03-01T09:18:18.729Z,97479.23
2019-03-01T09:20:47.109Z,97477.14
2019-03-01T09:23:22.900Z,97469.10
2019-03-01T09:25:45.762Z,97469.10
2019-03-01T09:28:14.174Z,97471.41
2019-03-01T09:30:43.548Z,97463.63
2019-03-01T09:33:12.655Z,97472.66
2019-03-01T09:36:00.647Z,97462.31
2019-03-01T09:38:28.985Z,97462.31
2019-03-01T09:40:57.677Z,97474.97
2019-03-01T09:43:27.963Z,97470.59
2019-03-01T09:45:56.844Z,97462.88
2019-03-01T09:48:25.161Z,97460.61
2019-03-01T09:50:53.475Z,97460.61
2019-03-01T09:53:21.795Z,97463.55
2019-03-01T09:55:50.138Z,97465.69
2019-03-01T09:58:18.494Z,97465.69
2019-03-01T10:00:56.292Z,97454.44
2019-03-01T10:03:20.464Z,97455.89
2019-03-01T10:05:48.764Z,97469.27
2019-03-01T10:08:17.444Z,97457.41
2019-03-01T10:10:45.781Z,97457.41
2019-03-01T10:13:14.082Z,97471.09
2019-03-01T10:15:42.472Z,97469.72
2019-03-01T10:18:10.933Z,97469.72
2019-03-01T10:20:39.424Z,97475.09
2019-03-01T10:23:07.776Z,97475.09
2019-03-01T10:25:36.083Z,97464.55
2019-03-01T10:28:04.807Z,97472.58
2019-03-01T10:30:33.195Z,97470.59
2019-03-01T10:33:01.468Z,97470.59
2019-03-01T10:35:29.938Z,97477.70
2019-03-01T10:37:58.304Z,97487.49
2019-03-01T10:40:27.761Z,97487.49
2019-03-01T10:42:56.061Z,97482.77
2019-03-01T10:45:29.420Z,97489.75
2019-03-01T10:47:57.732Z,97492.95
2019-03-01T10:50:26.082Z,97492.95
2019-03-01T10:52:56.234Z,97491.63
2019-03-01T10:55:24.594Z,97490.01
2019-03-01T10:57:52.978Z,97495.81
2019-03-01T11:00:31.936Z,97494.05
2019-03-01T11:03:00.330Z,97497.31
2019-03-01T11:05:28.869Z,97499.69
2019-03-01T11:07:57.471Z,97493.66
2019-03-01T11:10:34.186Z,97493.66
2019-03-01T11:13:02.652Z,97493.48
2019-03-01T11:15:31.163Z,97497.98
2019-03-01T11:17:59.493Z,97494.23
2019-03-01T11:20:27.949Z,97498.85
2019-03-01T11:22:56.341Z,97507.51
2019-03-01T11:25:25.986Z,97506.52
2019-03-01T11:27:54.855Z,97509.66
2019-03-01T11:30:25.749Z,97502.67
2019-03-01T11:32:53.957Z,97516.38
2019-03-01T11:35:22.394Z,97516.38
2019-03-01T11:37:50.734Z,97520.89
2019-03-01T11:40:24.659Z,97524.16
2019-03-01T11:42:53.060Z,97534.34
2019-03-01T11:45:21.375Z,97516.86
2019-03-01T11:47:49.931Z,97531.83
2019-03-01T11:50:22.822Z,97534.23
2019-03-01T11:52:51.201Z,97529.45
2019-03-01T11:55:19.644Z,97538.27
2019-03-01T11:57:48.410Z,97525.87
2019-03-01T12:00:22.613Z,97539.21
2019-03-01T12:02:51.457Z,97539.21
2019-03-01T12:05:20.191Z,97536.80
2019-03-01T12:07:48.945Z,97536.80
2019-03-01T12:10:30.798Z,97532.14
2019-03-01T12:12:59.351Z,97523.31
2019-03-01T12:15:27.892Z,97523.31
2019-03-01T12:17:56.252Z,97525.84
2019-03-01T12:20:31.614Z,97517.16
2019-03-01T12:22:59.964Z,97519.36
2019-03-01T12:25:28.293Z,97524.39
2019-03-01T12:27:56.655Z,97523.37
2019-03-01T12:30:27.191Z,97515.13
2019-03-01T12:32:55.499Z,97515.13
2019-03-01T12:35:24.301Z,97530.94
2019-03-01T12:37:52.698Z,97532.94
2019-03-01T12:40:26.026Z,97528.34
2019-03-01T12:42:54.306Z,97536.06
2019-03-01T12:45:22.764Z,97536.06
2019-03-01T12:47:51.323Z,97532.89
2019-03-01T12:50:19.827Z,97537.70
2019-03-01T12:52:49.631Z,97539.00
2019-03-01T12:55:22.892Z,97545.97
2019-03-01T12:57:51.428Z,97544.64
2019-03-01T13:00:28.746Z,97545.23
2019-03-01T13:02:57.108Z,97545.23
2019-03-01T13:05:28.877Z,97538.42
2019-03-01T13:07:56.190Z,97543.12
2019-03-01T13:10:27.349Z,97536.98
2019-03-01T13:12:58.698Z,97542.74
2019-03-01T13:15:25.994Z,97542.74
2019-03-01T13:17:54.304Z,97540.00
2019-03-01T13:20:22.888Z,97540.73
2019-03-01T13:22:51.264Z,97540.73
2019-03-01T13:25:19.595Z,97543.84
2019-03-01T13:27:48.831Z,97543.84
2019-03-01T13:30:23.020Z,97546.84
2019-03-01T13:32:51.363Z,97546.84
2019-03-01T13:35:22.382Z,97543.70
2019-03-01T13:37:52.061Z,97543.70
2019-03-01T13:40:24.424Z,97557.25
2019-03-01T13:42:52.086Z,97557.73
2019-03-01T13:45:22.811Z,97565.36
2019-03-01T13:47:51.280Z,97565.36
2019-03-01T13:50:20.530Z,97548.74
2019-03-01T13:52:50.198Z,97551.88
2019-03-01T13:55:21.933Z,97555.81
2019-03-01T13:57:49.883Z,97555.81
2019-03-01T14:00:20.033Z,97546.02
2019-03-01T14:02:48.600Z,97544.33
2019-03-01T14:05:17.602Z,97543.30
2019-03-01T14:07:46.356Z,97543.30
2019-03-01T14:10:16.977Z,97548.20
2019-03-01T14:12:45.429Z,97541.13
2019-03-01T14:15:17.944Z,97546.69
2019-03-01T14:17:46.763Z,97554.81
2019-03-01T14:20:20.353Z,97554.81
2019-03-01T14:22:49.076Z,97540.92
2019-03-01T14:25:18.257Z,97554.51
2019-03-01T14:27:46.776Z,97567.13
2019-03-01T14:30:29.127Z,97567.13
2019-03-01T14:32:57.780Z,97570.53
2019-03-01T14:35:26.850Z,97556.15
2019-03-01T14:37:55.882Z,97572.18
2019-03-01T14:40:24.494Z,97568.64
2019-03-01T14:42:53.110Z,97568.19
2019-03-01T14:45:32.463Z,97572.17
2019-03-01T14:48:00.957Z,97566.04
2019-03-01T14:50:33.777Z,97573.06
2019-03-01T14:53:00.470Z,97572.56
2019-03-01T14:55:38.399Z,97575.30
2019-03-01T14:58:15.763Z,97579.09
2019-03-01T15:00:55.981Z,97584.06
2019-03-01T15:03:33.357Z,97583.01
2019-03-01T15:06:01.861Z,97581.39
2019-03-01T15:08:30.290Z,97579.96
2019-03-01T15:11:04.026Z,97578.50
2019-03-01T15:13:31.357Z,97582.11
2019-03-01T15:16:04.833Z,97583.38
2019-03-01T15:18:32.346Z,97588.00
2019-03-01T15:21:02.787Z,97583.41
2019-03-01T15:23:31.914Z,97587.82
2019-03-01T15:26:00.388Z,97582.46
2019-03-01T15:28:28.919Z,97581.56
2019-03-01T15:30:57.791Z,97589.95
2019-03-01T15:33:26.159Z,97590.88
2019-03-01T15:35:54.545Z,97599.20
2019-03-01T15:38:23.924Z,97599.20
2019-03-01T15:40:53.225Z,97601.64
2019-03-01T15:43:22.184Z,97601.55
2019-03-01T15:45:50.636Z,97606.14
2019-03-01T15:48:18.993Z,97599.77
2019-03-01T15:50:47.375Z,97610.77
2019-03-01T15:53:15.705Z,97612.45
2019-03-01T15:55:44.156Z,97622.64
2019-03-01T15:58:12.580Z,97619.60
2019-03-01T16:00:40.949Z,97619.02
2019-03-01T16:03:09.884Z,97621.41
2019-03-01T16:05:38.372Z,97628.94
2019-03-01T16:08:08.357Z,97633.30
2019-03-01T16:10:37.162Z,97634.17
2019-03-01T16:13:08.401Z,97628.00
2019-03-01T16:15:38.920Z,97637.34
2019-03-01T16:18:06.430Z,97631.88
2019-03-01T16:20:34.869Z,97640.55
2019-03-01T16:23:03.607Z,97636.61
2019-03-01T16:25:31.961Z,97636.61
2019-03-01T16:28:00.322Z,97645.41
2019-03-01T16:30:28.791Z,97645.41
2019-03-01T16:32:57.231Z,97626.55
2019-03-01T16:35:25.606Z,97650.53
2019-03-01T16:37:57.808Z,97657.59
2019-03-01T16:40:25.863Z,97657.59
2019-03-01T16:42:54.726Z,97661.39
2019-03-01T16:45:23.364Z,97669.92
2019-03-01T16:47:51.962Z,97682.14
2019-03-01T16:50:20.806Z,97687.98
2019-03-01T16:52:49.206Z,97677.07
2019-03-01T16:55:24.368Z,97682.66
2019-03-01T16:57:54.972Z,97681.11
2019-03-01T17:00:23.942Z,97679.45
2019-03-01T17:03:10.117Z,97683.76
2019-03-01T17:05:38.937Z,97678.11
2019-03-01T17:08:08.191Z,97689.55
2019-03-01T17:10:36.588Z,97694.78
2019-03-01T17:13:05.003Z,97694.78
2019-03-01T17:15:35.252Z,97696.95
2019-03-01T17:18:03.713Z,97711.70
2019-03-01T17:20:37.488Z,97707.67
2019-03-01T17:23:03.173Z,97707.80
2019-03-01T17:25:32.469Z,97703.53
2019-03-01T17:28:00.872Z,97712.64
2019-03-01T17:30:29.273Z,97715.23
2019-03-01T17:32:57.658Z,97715.23
2019-03-01T17:35:26.268Z,97717.05
2019-03-01T17:37:54.593Z,97708.50
2019-03-01T17:40:23.189Z,97708.50
2019-03-01T17:42:53.193Z,97704.54
2019-03-01T17:45:23.243Z,97704.54
2019-03-01T17:47:51.663Z,97714.56
2019-03-01T17:50:20.130Z,97723.64
2019-03-01T17:52:48.710Z,97741.91
2019-03-01T17:55:18.517Z,97741.91
2019-03-01T17:57:47.088Z,97742.81
2019-03-01T18:00:26.665Z,97742.81
2019-03-01T18:02:55.391Z,97732.88
2019-03-01T18:05:24.028Z,97735.91
2019-03-01T18:07:52.451Z,97740.95
2019-03-01T18:10:20.825Z,97751.92
2019-03-01T18:12:49.329Z,97750.92
2019-03-01T18:15:17.819Z,97767.83
2019-03-01T18:17:46.478Z,97773.03
2019-03-01T18:20:15.062Z,97778.67
2019-03-01T18:22:43.667Z,97778.67
2019-03-01T18:25:13.339Z,97791.27
2019-03-01T18:27:41.747Z,97791.27
2019-03-01T18:30:24.785Z,97782.81
2019-03-01T18:32:53.199Z,97787.45
2019-03-01T18:35:21.592Z,97793.55
2019-03-01T18:37:51.542Z,97803.45
2019-03-01T18:40:20.492Z,97801.89
2019-03-01T18:42:48.846Z,97796.05
2019-03-01T18:45:20.266Z,97796.05
2019-03-01T18:47:48.661Z,97795.06
2019-03-01T18:50:27.651Z,97816.78
2019-03-01T18:52:55.684Z,97809.94
2019-03-01T18:55:24.254Z,97818.52
2019-03-01T18:57:52.739Z,97818.52
2019-03-01T19:00:44.551Z,97828.91
2019-03-01T19:03:13.168Z,97835.87
2019-03-01T19:05:41.551Z,97840.95
2019-03-01T19:08:10.706Z,97840.95
2019-03-01T19:10:39.189Z,97831.73
2019-03-01T19:13:07.710Z,97836.77
2019-03-01T19:15:36.093Z,97848.78
2019-03-01T19:18:05.546Z,97858.14
2019-03-01T19:20:42.568Z,97852.66
2019-03-01T19:23:10.954Z,97852.66
2019-03-01T19:25:39.529Z,97849.34
2019-03-01T19:28:07.963Z,97849.34
2019-03-01T19:30:36.474Z,97855.05
2019-03-01T19:33:06.392Z,97866.31
2019-03-01T19:35:34.888Z,97873.78
2019-03-01T19:38:03.267Z,97879.69
2019-03-01T19:40:31.756Z,97878.73
2019-03-01T19:43:00.063Z,97875.52
2019-03-01T19:45:31.602Z,97875.52
2019-03-01T19:48:03.218Z,97878.95
2019-03-01T19:50:30.561Z,97879.02
2019-03-01T19:52:58.991Z,97895.38
2019-03-01T19:55:28.014Z,97895.38
2019-03-01T19:57:56.493Z,97891.14
2019-03-01T20:00:32.100Z,97903.47
2019-03-01T20:03:00.565Z,97887.05
2019-03-01T20:05:34.045Z,97887.05
2019-03-01T20:08:02.564Z,97895.11
2019-03-01T20:10:31.176Z,97895.11
2019-03-01T20:12:59.634Z,97905.02
